sensor_id;sensor_type;location;lat;lon;timestamp;temperature;humidity
10388;DHT22;5240;51.128;4.566;2022-10-17T00:01:06;14.80;99.90
10388;DHT22;5240;51.128;4.566;2022-10-17T00:03:35;14.80;99.90
10388;DHT22;5240;51.128;4.566;2022-10-17T00:06:05;14.80;99.90
10388;DHT22;5240;51.128;4.566;2022-10-17T00:08:33;14.80;99.90
10388;DHT22;5240;51.128;4.566;2022-10-17T00:11:02;14.80;99.90
10388;DHT22;5240;51.128;4.566;2022-10-17T00:13:29;14.70;99.90
10388;DHT22;5240;51.128;4.566;2022-10-17T00:15:56;14.80;99.90
10388;DHT22;5240;51.128;4.566;2022-10-17T00:18:23;14.70;99.90
10388;DHT22;5240;51.128;4.566;2022-10-17T00:20:52;14.70;99.90
10388;DHT22;5240;51.128;4.566;2022-10-17T00:23:19;14.70;99.90
10388;DHT22;5240;51.128;4.566;2022-10-17T00:25:46;14.70;99.90
10388;DHT22;5240;51.128;4.566;2022-10-17T00:28:14;14.70;99.90
10388;DHT22;5240;51.128;4.566;2022-10-17T00:30:41;14.70;99.90
10388;DHT22;5240;51.128;4.566;2022-10-17T00:33:08;14.70;99.90
10388;DHT22;5240;51.128;4.566;2022-10-17T00:35:35;14.70;99.90
10388;DHT22;5240;51.128;4.566;2022-10-17T00:38:03;14.60;99.90
10388;DHT22;5240;51.128;4.566;2022-10-17T00:40:30;14.60;99.90
10388;DHT22;5240;51.128;4.566;2022-10-17T00:42:57;14.60;99.90
10388;DHT22;5240;51.128;4.566;2022-10-17T00:45:26;14.60;99.90
10388;DHT22;5240;51.128;4.566;2022-10-17T00:47:57;14.60;99.90
10388;DHT22;5240;51.128;4.566;2022-10-17T00:50:26;14.60;99.90
10388;DHT22;5240;51.128;4.566;2022-10-17T00:52:54;14.60;99.90
10388;DHT22;5240;51.128;4.566;2022-10-17T00:55:26;14.60;99.90
10388;DHT22;5240;51.128;4.566;2022-10-17T00:57:54;14.70;99.90
10388;DHT22;5240;51.128;4.566;2022-10-17T01:00:23;14.70;99.90
10388;DHT22;5240;51.128;4.566;2022-10-17T01:02:50;14.70;99.90
10388;DHT22;5240;51.128;4.566;2022-10-17T01:05:18;14.70;99.90
10388;DHT22;5240;51.128;4.566;2022-10-17T01:07:46;14.70;99.90
10388;DHT22;5240;51.128;4.566;2022-10-17T01:10:14;14.70;99.90
10388;DHT22;5240;51.128;4.566;2022-10-17T01:12:54;14.70;99.90
10388;DHT22;5240;51.128;4.566;2022-10-17T01:15:32;14.70;99.90
10388;DHT22;5240;51.128;4.566;2022-10-17T01:18:14;14.80;99.90
10388;DHT22;5240;51.128;4.566;2022-10-17T01:27:04;14.90;99.90
10388;DHT22;5240;51.128;4.566;2022-10-17T01:29:43;14.80;99.90
10388;DHT22;5240;51.128;4.566;2022-10-17T01:32:16;14.90;99.90
10388;DHT22;5240;51.128;4.566;2022-10-17T01:34:49;14.90;99.90
10388;DHT22;5240;51.128;4.566;2022-10-17T01:37:20;14.90;99.90
10388;DHT22;5240;51.128;4.566;2022-10-17T01:39:55;14.90;99.90
10388;DHT22;5240;51.128;4.566;2022-10-17T01:42:29;14.90;99.90
10388;DHT22;5240;51.128;4.566;2022-10-17T01:45:02;14.80;99.90
10388;DHT22;5240;51.128;4.566;2022-10-17T01:47:34;14.90;99.90
10388;DHT22;5240;51.128;4.566;2022-10-17T01:50:04;14.90;99.90
10388;DHT22;5240;51.128;4.566;2022-10-17T01:52:37;14.90;99.90
10388;DHT22;5240;51.128;4.566;2022-10-17T01:55:08;14.90;99.90
10388;DHT22;5240;51.128;4.566;2022-10-17T01:57:39;14.90;99.90
10388;DHT22;5240;51.128;4.566;2022-10-17T02:00:10;14.90;99.90
10388;DHT22;5240;51.128;4.566;2022-10-17T02:02:43;14.90;99.90
10388;DHT22;5240;51.128;4.566;2022-10-17T02:05:10;14.90;99.90
10388;DHT22;5240;51.128;4.566;2022-10-17T02:07:40;15.00;99.90
10388;DHT22;5240;51.128;4.566;2022-10-17T02:10:12;15.00;99.90
10388;DHT22;5240;51.128;4.566;2022-10-17T02:12:48;15.00;99.90
10388;DHT22;5240;51.128;4.566;2022-10-17T02:15:38;15.00;99.90
10388;DHT22;5240;51.128;4.566;2022-10-17T02:18:19;15.00;99.90
10388;DHT22;5240;51.128;4.566;2022-10-17T02:20:53;15.00;99.90
10388;DHT22;5240;51.128;4.566;2022-10-17T02:23:26;15.00;99.90
10388;DHT22;5240;51.128;4.566;2022-10-17T02:26:01;15.00;99.90
10388;DHT22;5240;51.128;4.566;2022-10-17T02:28:35;15.00;99.90
10388;DHT22;5240;51.128;4.566;2022-10-17T02:31:09;15.10;99.90
10388;DHT22;5240;51.128;4.566;2022-10-17T02:33:43;15.10;99.90
10388;DHT22;5240;51.128;4.566;2022-10-17T02:36:16;15.10;99.90
10388;DHT22;5240;51.128;4.566;2022-10-17T02:38:44;15.10;99.90
10388;DHT22;5240;51.128;4.566;2022-10-17T02:41:14;15.10;99.90
10388;DHT22;5240;51.128;4.566;2022-10-17T02:43:43;15.10;99.90
10388;DHT22;5240;51.128;4.566;2022-10-17T02:46:13;15.20;99.90
10388;DHT22;5240;51.128;4.566;2022-10-17T02:48:50;15.20;99.90
10388;DHT22;5240;51.128;4.566;2022-10-17T02:51:25;15.20;99.90
10388;DHT22;5240;51.128;4.566;2022-10-17T02:54:03;15.20;99.90
10388;DHT22;5240;51.128;4.566;2022-10-17T02:56:40;15.30;99.90
10388;DHT22;5240;51.128;4.566;2022-10-17T02:59:11;15.40;99.90
10388;DHT22;5240;51.128;4.566;2022-10-17T03:01:40;15.40;99.90
10388;DHT22;5240;51.128;4.566;2022-10-17T03:04:10;15.40;99.90
10388;DHT22;5240;51.128;4.566;2022-10-17T03:06:38;15.50;99.90
10388;DHT22;5240;51.128;4.566;2022-10-17T03:09:05;15.50;99.90
10388;DHT22;5240;51.128;4.566;2022-10-17T03:11:32;15.50;99.90
10388;DHT22;5240;51.128;4.566;2022-10-17T03:13:59;15.60;99.90
10388;DHT22;5240;51.128;4.566;2022-10-17T03:16:26;15.60;99.90
10388;DHT22;5240;51.128;4.566;2022-10-17T03:18:53;15.60;99.90
10388;DHT22;5240;51.128;4.566;2022-10-17T03:21:22;15.70;99.90
10388;DHT22;5240;51.128;4.566;2022-10-17T03:23:49;15.70;99.90
10388;DHT22;5240;51.128;4.566;2022-10-17T03:26:16;15.80;99.90
10388;DHT22;5240;51.128;4.566;2022-10-17T03:28:43;15.90;99.90
10388;DHT22;5240;51.128;4.566;2022-10-17T03:31:12;16.00;99.90
10388;DHT22;5240;51.128;4.566;2022-10-17T03:33:40;16.10;99.90
10388;DHT22;5240;51.128;4.566;2022-10-17T03:36:09;16.10;99.90
10388;DHT22;5240;51.128;4.566;2022-10-17T03:38:39;16.20;99.90
10388;DHT22;5240;51.128;4.566;2022-10-17T03:41:06;16.30;99.90
10388;DHT22;5240;51.128;4.566;2022-10-17T03:43:33;16.40;99.90
10388;DHT22;5240;51.128;4.566;2022-10-17T03:46:00;16.40;99.90
10388;DHT22;5240;51.128;4.566;2022-10-17T03:48:28;16.50;99.90
10388;DHT22;5240;51.128;4.566;2022-10-17T03:50:58;16.50;99.90
10388;DHT22;5240;51.128;4.566;2022-10-17T03:53:25;16.50;99.90
10388;DHT22;5240;51.128;4.566;2022-10-17T03:55:54;16.60;99.90
10388;DHT22;5240;51.128;4.566;2022-10-17T03:58:21;16.70;99.90
10388;DHT22;5240;51.128;4.566;2022-10-17T04:00:48;16.70;99.90
10388;DHT22;5240;51.128;4.566;2022-10-17T04:03:15;16.70;99.90
10388;DHT22;5240;51.128;4.566;2022-10-17T04:05:42;16.80;99.90
10388;DHT22;5240;51.128;4.566;2022-10-17T04:08:09;16.70;99.90
10388;DHT22;5240;51.128;4.566;2022-10-17T04:10:36;16.80;99.90
10388;DHT22;5240;51.128;4.566;2022-10-17T04:13:04;16.80;99.90
10388;DHT22;5240;51.128;4.566;2022-10-17T04:15:31;16.80;99.90
10388;DHT22;5240;51.128;4.566;2022-10-17T04:17:58;16.90;99.90
10388;DHT22;5240;51.128;4.566;2022-10-17T04:20:25;16.90;99.90
10388;DHT22;5240;51.128;4.566;2022-10-17T04:22:52;16.90;99.90
10388;DHT22;5240;51.128;4.566;2022-10-17T04:25:18;16.90;99.90
10388;DHT22;5240;51.128;4.566;2022-10-17T04:27:45;16.90;99.90
10388;DHT22;5240;51.128;4.566;2022-10-17T04:30:15;17.00;99.90
10388;DHT22;5240;51.128;4.566;2022-10-17T04:32:42;16.90;99.90
10388;DHT22;5240;51.128;4.566;2022-10-17T04:35:09;16.90;99.90
10388;DHT22;5240;51.128;4.566;2022-10-17T04:37:36;16.90;99.90
10388;DHT22;5240;51.128;4.566;2022-10-17T04:40:03;16.90;99.90
10388;DHT22;5240;51.128;4.566;2022-10-17T04:42:31;16.90;99.90
10388;DHT22;5240;51.128;4.566;2022-10-17T04:44:58;16.90;99.90
10388;DHT22;5240;51.128;4.566;2022-10-17T04:47:26;16.90;99.90
10388;DHT22;5240;51.128;4.566;2022-10-17T04:49:53;16.90;99.90
10388;DHT22;5240;51.128;4.566;2022-10-17T04:52:20;16.90;99.90
10388;DHT22;5240;51.128;4.566;2022-10-17T04:54:47;16.90;99.90
10388;DHT22;5240;51.128;4.566;2022-10-17T04:57:14;16.80;99.90
10388;DHT22;5240;51.128;4.566;2022-10-17T04:59:41;16.90;99.90
10388;DHT22;5240;51.128;4.566;2022-10-17T05:02:08;16.90;99.90
10388;DHT22;5240;51.128;4.566;2022-10-17T05:04:36;16.90;99.90
10388;DHT22;5240;51.128;4.566;2022-10-17T05:07:03;16.90;99.90
10388;DHT22;5240;51.128;4.566;2022-10-17T05:09:30;16.90;99.90
10388;DHT22;5240;51.128;4.566;2022-10-17T05:11:57;16.80;99.90
10388;DHT22;5240;51.128;4.566;2022-10-17T05:14:24;16.80;99.90
10388;DHT22;5240;51.128;4.566;2022-10-17T05:16:51;16.80;99.90
10388;DHT22;5240;51.128;4.566;2022-10-17T05:19:18;16.80;99.90
10388;DHT22;5240;51.128;4.566;2022-10-17T05:21:46;16.80;99.90
10388;DHT22;5240;51.128;4.566;2022-10-17T05:24:14;16.90;99.90
10388;DHT22;5240;51.128;4.566;2022-10-17T05:26:41;16.90;99.90
10388;DHT22;5240;51.128;4.566;2022-10-17T05:29:08;16.80;99.90
10388;DHT22;5240;51.128;4.566;2022-10-17T05:31:35;16.90;99.90
10388;DHT22;5240;51.128;4.566;2022-10-17T05:34:02;16.90;99.90
10388;DHT22;5240;51.128;4.566;2022-10-17T05:36:29;16.80;99.90
10388;DHT22;5240;51.128;4.566;2022-10-17T05:38:57;16.90;99.90
10388;DHT22;5240;51.128;4.566;2022-10-17T05:41:24;16.90;99.90
10388;DHT22;5240;51.128;4.566;2022-10-17T05:43:51;16.90;99.90
10388;DHT22;5240;51.128;4.566;2022-10-17T05:46:18;16.90;99.90
10388;DHT22;5240;51.128;4.566;2022-10-17T05:48:45;16.90;99.90
10388;DHT22;5240;51.128;4.566;2022-10-17T05:51:12;16.90;99.90
10388;DHT22;5240;51.128;4.566;2022-10-17T05:53:40;16.90;99.90
10388;DHT22;5240;51.128;4.566;2022-10-17T05:56:10;16.90;99.90
10388;DHT22;5240;51.128;4.566;2022-10-17T05:58:39;16.90;99.90
10388;DHT22;5240;51.128;4.566;2022-10-17T06:01:07;16.90;99.90
10388;DHT22;5240;51.128;4.566;2022-10-17T06:03:34;16.90;99.90
10388;DHT22;5240;51.128;4.566;2022-10-17T06:06:04;16.90;99.90
10388;DHT22;5240;51.128;4.566;2022-10-17T06:08:32;16.90;99.90
10388;DHT22;5240;51.128;4.566;2022-10-17T06:10:59;16.90;99.90
10388;DHT22;5240;51.128;4.566;2022-10-17T06:13:27;16.90;99.90
10388;DHT22;5240;51.128;4.566;2022-10-17T06:15:54;16.90;99.90
10388;DHT22;5240;51.128;4.566;2022-10-17T06:18:22;16.90;99.90
10388;DHT22;5240;51.128;4.566;2022-10-17T06:20:49;16.90;99.90
10388;DHT22;5240;51.128;4.566;2022-10-17T06:23:16;16.90;99.90
10388;DHT22;5240;51.128;4.566;2022-10-17T06:25:43;16.90;99.90
10388;DHT22;5240;51.128;4.566;2022-10-17T06:28:10;16.90;99.90
10388;DHT22;5240;51.128;4.566;2022-10-17T06:30:39;16.90;99.90
10388;DHT22;5240;51.128;4.566;2022-10-17T06:33:06;17.00;99.90
10388;DHT22;5240;51.128;4.566;2022-10-17T06:35:33;17.00;99.90
10388;DHT22;5240;51.128;4.566;2022-10-17T06:38:00;17.00;99.90
10388;DHT22;5240;51.128;4.566;2022-10-17T06:40:27;17.00;99.90
10388;DHT22;5240;51.128;4.566;2022-10-17T06:42:55;17.00;99.90
10388;DHT22;5240;51.128;4.566;2022-10-17T06:45:23;17.00;99.90
10388;DHT22;5240;51.128;4.566;2022-10-17T06:47:51;17.00;99.90
10388;DHT22;5240;51.128;4.566;2022-10-17T06:50:18;17.00;99.90
10388;DHT22;5240;51.128;4.566;2022-10-17T06:52:45;17.00;99.90
10388;DHT22;5240;51.128;4.566;2022-10-17T06:55:12;17.00;99.90
10388;DHT22;5240;51.128;4.566;2022-10-17T06:57:39;16.90;99.90
10388;DHT22;5240;51.128;4.566;2022-10-17T07:00:07;16.90;99.90
10388;DHT22;5240;51.128;4.566;2022-10-17T07:02:34;16.90;99.90
10388;DHT22;5240;51.128;4.566;2022-10-17T07:05:02;16.90;99.90
10388;DHT22;5240;51.128;4.566;2022-10-17T07:07:30;16.80;99.90
10388;DHT22;5240;51.128;4.566;2022-10-17T07:09:57;16.80;99.90
10388;DHT22;5240;51.128;4.566;2022-10-17T07:12:24;16.80;99.90
10388;DHT22;5240;51.128;4.566;2022-10-17T07:14:54;16.80;99.90
10388;DHT22;5240;51.128;4.566;2022-10-17T07:17:21;16.80;99.90
10388;DHT22;5240;51.128;4.566;2022-10-17T07:19:47;16.80;99.90
10388;DHT22;5240;51.128;4.566;2022-10-17T07:22:16;16.80;99.90
10388;DHT22;5240;51.128;4.566;2022-10-17T07:24:43;16.80;99.90
10388;DHT22;5240;51.128;4.566;2022-10-17T07:27:10;16.80;99.90
10388;DHT22;5240;51.128;4.566;2022-10-17T07:29:38;16.70;99.90
10388;DHT22;5240;51.128;4.566;2022-10-17T07:32:05;16.70;99.90
10388;DHT22;5240;51.128;4.566;2022-10-17T07:34:33;16.80;99.90
10388;DHT22;5240;51.128;4.566;2022-10-17T07:37:00;16.70;99.90
10388;DHT22;5240;51.128;4.566;2022-10-17T07:39:29;16.70;99.90
10388;DHT22;5240;51.128;4.566;2022-10-17T07:41:56;16.70;99.90
10388;DHT22;5240;51.128;4.566;2022-10-17T07:44:23;16.70;99.90
10388;DHT22;5240;51.128;4.566;2022-10-17T07:46:50;16.70;99.90
10388;DHT22;5240;51.128;4.566;2022-10-17T07:49:17;16.70;99.90
10388;DHT22;5240;51.128;4.566;2022-10-17T07:51:44;16.70;99.90
10388;DHT22;5240;51.128;4.566;2022-10-17T07:54:13;16.70;99.90
10388;DHT22;5240;51.128;4.566;2022-10-17T07:56:42;16.70;99.90
10388;DHT22;5240;51.128;4.566;2022-10-17T07:59:17;16.70;99.90
10388;DHT22;5240;51.128;4.566;2022-10-17T08:01:45;16.60;99.90
10388;DHT22;5240;51.128;4.566;2022-10-17T08:04:13;16.60;99.90
10388;DHT22;5240;51.128;4.566;2022-10-17T08:06:41;16.60;99.90
10388;DHT22;5240;51.128;4.566;2022-10-17T08:09:09;16.60;99.90
10388;DHT22;5240;51.128;4.566;2022-10-17T08:11:37;16.60;99.90
10388;DHT22;5240;51.128;4.566;2022-10-17T08:14:06;16.60;99.90
10388;DHT22;5240;51.128;4.566;2022-10-17T08:16:34;16.50;99.90
10388;DHT22;5240;51.128;4.566;2022-10-17T08:19:02;16.50;99.90
10388;DHT22;5240;51.128;4.566;2022-10-17T08:21:30;16.50;99.90
10388;DHT22;5240;51.128;4.566;2022-10-17T08:23:59;16.50;99.90
10388;DHT22;5240;51.128;4.566;2022-10-17T08:26:27;16.50;99.90
10388;DHT22;5240;51.128;4.566;2022-10-17T08:29:05;16.50;99.90
10388;DHT22;5240;51.128;4.566;2022-10-17T08:31:40;16.50;99.90
10388;DHT22;5240;51.128;4.566;2022-10-17T08:34:10;16.50;99.90
10388;DHT22;5240;51.128;4.566;2022-10-17T08:36:51;16.50;99.90
10388;DHT22;5240;51.128;4.566;2022-10-17T08:39:19;16.50;99.90
10388;DHT22;5240;51.128;4.566;2022-10-17T08:41:56;16.40;99.90
10388;DHT22;5240;51.128;4.566;2022-10-17T08:44:45;16.40;99.90
10388;DHT22;5240;51.128;4.566;2022-10-17T08:47:34;16.40;99.90
10388;DHT22;5240;51.128;4.566;2022-10-17T08:50:05;16.40;99.90
10388;DHT22;5240;51.128;4.566;2022-10-17T08:52:45;16.40;99.90
10388;DHT22;5240;51.128;4.566;2022-10-17T08:55:19;16.40;99.90
10388;DHT22;5240;51.128;4.566;2022-10-17T08:57:51;16.50;99.90
10388;DHT22;5240;51.128;4.566;2022-10-17T09:00:20;16.50;99.90
10388;DHT22;5240;51.128;4.566;2022-10-17T09:03:01;16.60;99.90
10388;DHT22;5240;51.128;4.566;2022-10-17T09:05:38;16.60;99.90
10388;DHT22;5240;51.128;4.566;2022-10-17T09:08:33;16.60;99.90
10388;DHT22;5240;51.128;4.566;2022-10-17T09:11:14;16.60;99.90
10388;DHT22;5240;51.128;4.566;2022-10-17T09:13:54;16.50;99.90
10388;DHT22;5240;51.128;4.566;2022-10-17T09:16:46;16.50;99.90
10388;DHT22;5240;51.128;4.566;2022-10-17T09:22:36;16.60;99.90
10388;DHT22;5240;51.128;4.566;2022-10-17T09:25:20;16.60;99.90
10388;DHT22;5240;51.128;4.566;2022-10-17T09:28:14;16.70;99.90
10388;DHT22;5240;51.128;4.566;2022-10-17T09:30:46;16.70;99.90
10388;DHT22;5240;51.128;4.566;2022-10-17T09:33:14;16.70;99.90
10388;DHT22;5240;51.128;4.566;2022-10-17T09:35:42;16.70;99.90
10388;DHT22;5240;51.128;4.566;2022-10-17T09:38:16;16.70;99.90
10388;DHT22;5240;51.128;4.566;2022-10-17T09:40:48;16.70;99.90
10388;DHT22;5240;51.128;4.566;2022-10-17T09:43:16;16.70;99.90
10388;DHT22;5240;51.128;4.566;2022-10-17T09:45:51;16.80;99.90
10388;DHT22;5240;51.128;4.566;2022-10-17T09:48:25;16.80;99.90
10388;DHT22;5240;51.128;4.566;2022-10-17T09:50:59;16.80;99.90
10388;DHT22;5240;51.128;4.566;2022-10-17T09:53:35;16.80;99.90
10388;DHT22;5240;51.128;4.566;2022-10-17T09:56:07;16.80;99.90
10388;DHT22;5240;51.128;4.566;2022-10-17T09:58:49;16.80;99.90
10388;DHT22;5240;51.128;4.566;2022-10-17T10:01:20;16.90;99.90
10388;DHT22;5240;51.128;4.566;2022-10-17T10:04:07;16.90;99.90
10388;DHT22;5240;51.128;4.566;2022-10-17T10:09:46;17.00;99.90
10388;DHT22;5240;51.128;4.566;2022-10-17T10:12:17;17.00;99.90
10388;DHT22;5240;51.128;4.566;2022-10-17T10:14:44;17.00;99.90
10388;DHT22;5240;51.128;4.566;2022-10-17T10:17:26;17.00;99.90
10388;DHT22;5240;51.128;4.566;2022-10-17T10:19:54;17.00;99.90
10388;DHT22;5240;51.128;4.566;2022-10-17T10:22:22;17.00;99.90
10388;DHT22;5240;51.128;4.566;2022-10-17T10:25:10;17.00;99.90
10388;DHT22;5240;51.128;4.566;2022-10-17T10:27:39;17.10;99.90
10388;DHT22;5240;51.128;4.566;2022-10-17T10:30:16;17.10;99.90
10388;DHT22;5240;51.128;4.566;2022-10-17T10:32:45;17.20;99.90
10388;DHT22;5240;51.128;4.566;2022-10-17T10:35:19;17.30;99.90
10388;DHT22;5240;51.128;4.566;2022-10-17T10:37:48;17.40;99.90
10388;DHT22;5240;51.128;4.566;2022-10-17T10:40:19;17.40;99.90
10388;DHT22;5240;51.128;4.566;2022-10-17T10:42:49;17.40;99.90
10388;DHT22;5240;51.128;4.566;2022-10-17T10:45:18;17.50;99.90
10388;DHT22;5240;51.128;4.566;2022-10-17T10:47:50;17.50;99.90
10388;DHT22;5240;51.128;4.566;2022-10-17T10:50:24;17.50;99.90
10388;DHT22;5240;51.128;4.566;2022-10-17T10:53:03;17.50;99.90
10388;DHT22;5240;51.128;4.566;2022-10-17T10:55:35;17.50;99.90
10388;DHT22;5240;51.128;4.566;2022-10-17T10:58:18;17.60;99.90
10388;DHT22;5240;51.128;4.566;2022-10-17T11:00:48;17.60;99.90
10388;DHT22;5240;51.128;4.566;2022-10-17T11:03:20;17.70;99.90
10388;DHT22;5240;51.128;4.566;2022-10-17T11:05:53;17.60;99.90
10388;DHT22;5240;51.128;4.566;2022-10-17T11:08:25;17.70;99.90
10388;DHT22;5240;51.128;4.566;2022-10-17T11:11:09;17.70;99.90
10388;DHT22;5240;51.128;4.566;2022-10-17T11:13:41;17.70;99.90
10388;DHT22;5240;51.128;4.566;2022-10-17T11:16:19;17.60;99.90
10388;DHT22;5240;51.128;4.566;2022-10-17T11:18:54;17.60;99.90
10388;DHT22;5240;51.128;4.566;2022-10-17T11:21:29;17.70;99.90
10388;DHT22;5240;51.128;4.566;2022-10-17T11:24:05;17.70;99.90
10388;DHT22;5240;51.128;4.566;2022-10-17T11:26:40;17.70;99.90
10388;DHT22;5240;51.128;4.566;2022-10-17T11:29:10;17.70;99.90
10388;DHT22;5240;51.128;4.566;2022-10-17T11:31:41;17.70;99.90
10388;DHT22;5240;51.128;4.566;2022-10-17T11:34:11;17.70;99.90
10388;DHT22;5240;51.128;4.566;2022-10-17T11:36:46;17.70;99.90
10388;DHT22;5240;51.128;4.566;2022-10-17T11:39:18;17.70;99.90
10388;DHT22;5240;51.128;4.566;2022-10-17T11:41:50;17.60;99.90
10388;DHT22;5240;51.128;4.566;2022-10-17T11:44:21;17.60;99.90
10388;DHT22;5240;51.128;4.566;2022-10-17T11:46:53;17.60;99.90
10388;DHT22;5240;51.128;4.566;2022-10-17T11:49:23;17.60;99.90
10388;DHT22;5240;51.128;4.566;2022-10-17T11:51:54;17.60;99.90
10388;DHT22;5240;51.128;4.566;2022-10-17T11:54:26;17.50;99.90
10388;DHT22;5240;51.128;4.566;2022-10-17T11:57:09;17.50;99.90
10388;DHT22;5240;51.128;4.566;2022-10-17T11:59:58;17.40;99.90
10388;DHT22;5240;51.128;4.566;2022-10-17T12:02:34;17.40;99.90
10388;DHT22;5240;51.128;4.566;2022-10-17T12:05:13;17.50;99.90
10388;DHT22;5240;51.128;4.566;2022-10-17T12:07:48;17.50;99.90
10388;DHT22;5240;51.128;4.566;2022-10-17T12:10:27;17.60;99.90
10388;DHT22;5240;51.128;4.566;2022-10-17T12:16:37;18.00;99.90
10388;DHT22;5240;51.128;4.566;2022-10-17T12:19:33;18.20;99.90
10388;DHT22;5240;51.128;4.566;2022-10-17T12:22:19;18.10;99.90
10388;DHT22;5240;51.128;4.566;2022-10-17T12:24:57;18.10;99.90
10388;DHT22;5240;51.128;4.566;2022-10-17T12:27:35;18.10;99.90
10388;DHT22;5240;51.128;4.566;2022-10-17T12:30:17;18.10;99.90
10388;DHT22;5240;51.128;4.566;2022-10-17T12:33:03;18.00;99.90
10388;DHT22;5240;51.128;4.566;2022-10-17T12:35:33;18.00;99.90
10388;DHT22;5240;51.128;4.566;2022-10-17T12:41:04;18.00;99.90
10388;DHT22;5240;51.128;4.566;2022-10-17T12:46:57;18.00;99.90
10388;DHT22;5240;51.128;4.566;2022-10-17T12:49:37;18.00;99.90
10388;DHT22;5240;51.128;4.566;2022-10-17T12:52:16;18.00;99.90
10388;DHT22;5240;51.128;4.566;2022-10-17T12:54:46;18.00;99.90
10388;DHT22;5240;51.128;4.566;2022-10-17T12:57:18;18.00;99.90
10388;DHT22;5240;51.128;4.566;2022-10-17T12:59:47;17.90;99.90
10388;DHT22;5240;51.128;4.566;2022-10-17T13:02:19;17.90;99.90
10388;DHT22;5240;51.128;4.566;2022-10-17T13:04:48;17.90;99.90
10388;DHT22;5240;51.128;4.566;2022-10-17T13:07:19;18.00;99.90
10388;DHT22;5240;51.128;4.566;2022-10-17T13:09:48;18.10;99.90
10388;DHT22;5240;51.128;4.566;2022-10-17T13:12:20;18.10;99.90
10388;DHT22;5240;51.128;4.566;2022-10-17T13:14:50;18.20;99.90
10388;DHT22;5240;51.128;4.566;2022-10-17T13:17:23;18.20;99.90
10388;DHT22;5240;51.128;4.566;2022-10-17T13:19:51;18.30;99.90
10388;DHT22;5240;51.128;4.566;2022-10-17T13:22:20;18.30;99.90
10388;DHT22;5240;51.128;4.566;2022-10-17T13:24:48;18.40;99.90
10388;DHT22;5240;51.128;4.566;2022-10-17T13:27:25;18.40;99.90
10388;DHT22;5240;51.128;4.566;2022-10-17T13:29:53;18.40;99.90
10388;DHT22;5240;51.128;4.566;2022-10-17T13:32:25;18.50;99.90
10388;DHT22;5240;51.128;4.566;2022-10-17T13:35:06;18.50;99.90
10388;DHT22;5240;51.128;4.566;2022-10-17T13:37:34;18.60;99.90
10388;DHT22;5240;51.128;4.566;2022-10-17T13:40:03;18.70;99.90
10388;DHT22;5240;51.128;4.566;2022-10-17T13:42:36;18.70;99.90
10388;DHT22;5240;51.128;4.566;2022-10-17T13:45:13;18.80;99.90
10388;DHT22;5240;51.128;4.566;2022-10-17T13:47:45;18.80;99.90
10388;DHT22;5240;51.128;4.566;2022-10-17T13:50:28;18.90;99.90
10388;DHT22;5240;51.128;4.566;2022-10-17T13:53:07;19.00;99.90
10388;DHT22;5240;51.128;4.566;2022-10-17T13:55:36;19.00;99.90
10388;DHT22;5240;51.128;4.566;2022-10-17T13:58:14;19.00;99.90
10388;DHT22;5240;51.128;4.566;2022-10-17T14:00:42;19.00;99.90
10388;DHT22;5240;51.128;4.566;2022-10-17T14:03:11;18.90;99.90
10388;DHT22;5240;51.128;4.566;2022-10-17T14:05:57;19.00;99.90
10388;DHT22;5240;51.128;4.566;2022-10-17T14:08:25;18.90;99.90
10388;DHT22;5240;51.128;4.566;2022-10-17T14:10:52;18.80;99.90
10388;DHT22;5240;51.128;4.566;2022-10-17T14:13:22;18.70;99.90
10388;DHT22;5240;51.128;4.566;2022-10-17T14:15:50;18.60;99.90
10388;DHT22;5240;51.128;4.566;2022-10-17T14:18:21;18.60;99.90
10388;DHT22;5240;51.128;4.566;2022-10-17T14:20:50;18.60;99.90
10388;DHT22;5240;51.128;4.566;2022-10-17T14:23:32;18.50;99.90
10388;DHT22;5240;51.128;4.566;2022-10-17T14:26:09;18.60;99.90
10388;DHT22;5240;51.128;4.566;2022-10-17T14:28:37;18.60;99.90
10388;DHT22;5240;51.128;4.566;2022-10-17T14:31:19;18.60;99.90
10388;DHT22;5240;51.128;4.566;2022-10-17T14:33:52;18.70;99.90
10388;DHT22;5240;51.128;4.566;2022-10-17T14:36:20;18.60;99.90
10388;DHT22;5240;51.128;4.566;2022-10-17T14:38:48;18.70;99.90
10388;DHT22;5240;51.128;4.566;2022-10-17T14:41:22;18.60;99.90
10388;DHT22;5240;51.128;4.566;2022-10-17T14:43:56;18.60;99.90
10388;DHT22;5240;51.128;4.566;2022-10-17T14:46:23;18.70;99.90
10388;DHT22;5240;51.128;4.566;2022-10-17T14:49:02;18.60;99.90
10388;DHT22;5240;51.128;4.566;2022-10-17T14:51:29;18.70;99.90
10388;DHT22;5240;51.128;4.566;2022-10-17T14:54:16;18.70;99.90
10388;DHT22;5240;51.128;4.566;2022-10-17T14:56:49;18.60;99.90
10388;DHT22;5240;51.128;4.566;2022-10-17T14:59:16;18.60;99.90
10388;DHT22;5240;51.128;4.566;2022-10-17T15:01:46;18.50;99.90
10388;DHT22;5240;51.128;4.566;2022-10-17T15:04:15;18.50;99.90
10388;DHT22;5240;51.128;4.566;2022-10-17T15:06:42;18.50;99.90
10388;DHT22;5240;51.128;4.566;2022-10-17T15:09:10;18.40;99.90
10388;DHT22;5240;51.128;4.566;2022-10-17T15:11:37;18.40;99.90
10388;DHT22;5240;51.128;4.566;2022-10-17T15:14:04;18.40;99.90
10388;DHT22;5240;51.128;4.566;2022-10-17T15:16:33;18.30;99.90
10388;DHT22;5240;51.128;4.566;2022-10-17T15:19:00;18.40;99.90
10388;DHT22;5240;51.128;4.566;2022-10-17T15:21:28;18.40;99.90
10388;DHT22;5240;51.128;4.566;2022-10-17T15:23:55;18.30;99.90
10388;DHT22;5240;51.128;4.566;2022-10-17T15:26:26;18.30;99.90
10388;DHT22;5240;51.128;4.566;2022-10-17T15:28:55;18.40;99.90
10388;DHT22;5240;51.128;4.566;2022-10-17T15:31:23;18.30;99.90
10388;DHT22;5240;51.128;4.566;2022-10-17T15:33:51;18.30;99.90
10388;DHT22;5240;51.128;4.566;2022-10-17T15:36:20;18.30;99.90
10388;DHT22;5240;51.128;4.566;2022-10-17T15:38:50;18.20;99.90
10388;DHT22;5240;51.128;4.566;2022-10-17T15:41:18;18.20;99.90
10388;DHT22;5240;51.128;4.566;2022-10-17T15:43:46;18.10;99.90
10388;DHT22;5240;51.128;4.566;2022-10-17T15:46:16;18.10;99.90
10388;DHT22;5240;51.128;4.566;2022-10-17T15:48:43;18.00;99.90
10388;DHT22;5240;51.128;4.566;2022-10-17T15:51:10;18.00;99.90
10388;DHT22;5240;51.128;4.566;2022-10-17T15:53:37;18.00;99.90
10388;DHT22;5240;51.128;4.566;2022-10-17T15:56:06;17.90;99.90
10388;DHT22;5240;51.128;4.566;2022-10-17T15:58:36;17.90;99.90
10388;DHT22;5240;51.128;4.566;2022-10-17T16:01:05;17.90;99.90
10388;DHT22;5240;51.128;4.566;2022-10-17T16:03:32;17.90;99.90
10388;DHT22;5240;51.128;4.566;2022-10-17T16:05:59;17.80;99.90
10388;DHT22;5240;51.128;4.566;2022-10-17T16:08:26;17.80;99.90
10388;DHT22;5240;51.128;4.566;2022-10-17T16:10:54;17.80;99.90
10388;DHT22;5240;51.128;4.566;2022-10-17T16:13:23;17.70;99.90
10388;DHT22;5240;51.128;4.566;2022-10-17T16:15:50;17.70;99.90
10388;DHT22;5240;51.128;4.566;2022-10-17T16:18:17;17.60;99.90
10388;DHT22;5240;51.128;4.566;2022-10-17T16:20:45;17.60;99.90
10388;DHT22;5240;51.128;4.566;2022-10-17T16:23:12;17.60;99.90
10388;DHT22;5240;51.128;4.566;2022-10-17T16:25:40;17.50;99.90
10388;DHT22;5240;51.128;4.566;2022-10-17T16:28:07;17.50;99.90
10388;DHT22;5240;51.128;4.566;2022-10-17T16:30:41;17.50;99.90